createdAt,value
2023-02-19T00:02:32.391Z,76.09
2023-02-19T00:05:35.747Z,75.83
2023-02-19T00:08:40.001Z,75.91
2023-02-19T00:11:43.671Z,76.44
2023-02-19T00:14:48.080Z,76.43
2023-02-19T00:17:51.315Z,76.59
2023-02-19T00:20:58.622Z,76.93
2023-02-19T00:24:04.450Z,77.35
2023-02-19T00:27:07.389Z,77.85
2023-02-19T00:30:12.189Z,77.42
2023-02-19T00:33:16.386Z,77.21
2023-02-19T00:36:20.402Z,77.25
2023-02-19T00:39:23.456Z,77.92
2023-02-19T00:42:27.710Z,78.13
2023-02-19T00:45:30.868Z,78.98
2023-02-19T00:48:34.902Z,79.84
2023-02-19T00:51:38.583Z,79.30
2023-02-19T00:54:42.282Z,79.28
2023-02-19T00:57:45.319Z,79.32
2023-02-19T01:00:48.763Z,79.49
2023-02-19T01:03:51.721Z,79.59
2023-02-19T01:06:55.179Z,79.97
2023-02-19T01:09:58.355Z,79.34
2023-02-19T01:13:01.603Z,79.28
2023-02-19T01:16:12.932Z,79.43
2023-02-19T01:19:16.332Z,79.29
2023-02-19T01:22:20.494Z,78.89
2023-02-19T01:25:23.879Z,79.20
2023-02-19T01:28:27.765Z,78.78
2023-02-19T01:31:31.188Z,78.04
2023-02-19T01:34:34.814Z,78.00
2023-02-19T01:37:38.264Z,77.77
2023-02-19T01:40:41.178Z,77.74
2023-02-19T01:43:57.313Z,76.12
2023-02-19T01:47:01.679Z,76.17
2023-02-19T01:50:05.276Z,76.85
2023-02-19T01:53:09.824Z,77.44
2023-02-19T01:56:17.964Z,78.13
2023-02-19T01:59:20.927Z,78.33
2023-02-19T02:02:27.476Z,77.71
2023-02-19T02:05:50.962Z,77.54
2023-02-19T02:09:15.707Z,77.25
2023-02-19T02:12:19.007Z,76.24
2023-02-19T02:15:25.159Z,75.29
2023-02-19T02:18:54.257Z,74.47
2023-02-19T02:22:17.070Z,74.36
2023-02-19T02:25:32.870Z,74.73
2023-02-19T02:29:08.282Z,75.27
2023-02-19T02:32:22.177Z,75.75
2023-02-19T02:35:30.650Z,76.64
2023-02-19T02:38:39.850Z,77.65
2023-02-19T02:42:09.944Z,78.17
2023-02-19T02:45:37.046Z,78.05
2023-02-19T02:48:58.205Z,78.87
2023-02-19T02:52:22.023Z,79.96
2023-02-19T02:55:25.589Z,81.56
2023-02-19T02:58:29.488Z,84.34
2023-02-19T03:02:14.261Z,84.40
2023-02-19T03:05:41.364Z,85.21
2023-02-19T03:08:49.816Z,86.10
2023-02-19T03:12:12.987Z,86.15
2023-02-19T03:15:35.836Z,87.12
2023-02-19T03:18:59.793Z,87.50
2023-02-19T03:22:11.818Z,88.32
2023-02-19T03:25:40.695Z,89.38
2023-02-19T03:29:04.414Z,89.63
2023-02-19T03:32:16.960Z,89.51
2023-02-19T03:35:23.946Z,89.26
2023-02-19T03:38:37.054Z,89.31
2023-02-19T03:41:54.997Z,89.43
2023-02-19T03:45:26.748Z,89.50
2023-02-19T03:48:37.444Z,89.21
2023-02-19T03:51:45.180Z,89.49
2023-02-19T03:55:00.955Z,89.01
2023-02-19T03:58:12.443Z,89.74
2023-02-19T04:01:27.976Z,89.66
2023-02-19T04:04:37.809Z,89.99
2023-02-19T04:07:45.052Z,90.33
2023-02-19T04:10:49.960Z,90.24
2023-02-19T04:14:06.795Z,90.42
2023-02-19T04:17:17.713Z,90.67
2023-02-19T04:20:22.442Z,90.24
2023-02-19T04:23:27.194Z,89.93
2023-02-19T04:26:31.132Z,90.86
2023-02-19T04:29:34.487Z,90.73
2023-02-19T04:32:37.424Z,90.60
2023-02-19T04:35:40.772Z,89.99
2023-02-19T04:38:43.807Z,89.54
2023-02-19T04:41:47.013Z,89.44
2023-02-19T04:44:49.940Z,88.28
2023-02-19T04:47:53.886Z,87.50
2023-02-19T04:50:57.282Z,86.94
2023-02-19T04:54:00.596Z,86.29
2023-02-19T04:57:03.618Z,85.43
2023-02-19T05:00:08.301Z,85.28
2023-02-19T05:03:11.512Z,84.99
2023-02-19T05:06:15.069Z,86.40
2023-02-19T05:09:18.565Z,87.37
2023-02-19T05:12:21.974Z,87.86
2023-02-19T05:15:25.042Z,88.35
2023-02-19T05:18:30.255Z,88.72
2023-02-19T05:21:33.232Z,89.80
2023-02-19T05:24:37.614Z,91.31
2023-02-19T05:27:40.601Z,91.91
2023-02-19T05:30:53.447Z,92.58
2023-02-19T05:33:58.299Z,93.75
2023-02-19T05:37:01.398Z,94.11
2023-02-19T05:40:06.071Z,93.67
2023-02-19T05:43:09.679Z,92.94
2023-02-19T05:46:14.915Z,93.35
2023-02-19T05:49:18.249Z,94.07
2023-02-19T05:52:21.421Z,94.28
2023-02-19T05:55:24.720Z,94.39
2023-02-19T05:58:28.048Z,93.99
2023-02-19T06:01:31.642Z,94.32
2023-02-19T06:04:34.969Z,94.05
2023-02-19T06:07:39.680Z,95.19
2023-02-19T06:10:43.504Z,95.62
2023-02-19T06:13:46.579Z,96.39
2023-02-19T06:16:49.800Z,96.56
2023-02-19T06:19:52.713Z,97.09
2023-02-19T06:22:57.401Z,97.43
2023-02-19T06:26:07.820Z,98.52
2023-02-19T06:29:11.456Z,98.55
2023-02-19T06:32:15.002Z,97.86
2023-02-19T06:35:18.326Z,97.12
2023-02-19T06:38:22.507Z,97.32
2023-02-19T06:41:26.926Z,96.22
2023-02-19T06:44:29.847Z,95.83
2023-02-19T06:47:33.289Z,96.01
2023-02-19T06:50:36.179Z,95.75
2023-02-19T06:53:39.438Z,95.83
2023-02-19T06:56:42.486Z,95.86
2023-02-19T06:59:48.790Z,96.10
2023-02-19T07:02:56.688Z,96.45
2023-02-19T07:06:01.049Z,96.08
2023-02-19T07:09:05.824Z,96.36
2023-02-19T07:12:10.237Z,96.72
2023-02-19T07:15:13.191Z,97.32
2023-02-19T07:18:16.385Z,96.92
2023-02-19T07:21:19.838Z,97.11
2023-02-19T07:24:23.100Z,97.68
2023-02-19T07:27:26.026Z,97.04
2023-02-19T07:30:30.623Z,96.45
2023-02-19T07:33:33.624Z,96.68
2023-02-19T07:36:37.855Z,96.84
2023-02-19T07:39:40.823Z,96.38
2023-02-19T07:42:44.061Z,96.70
2023-02-19T07:45:47.245Z,96.34
2023-02-19T07:48:50.577Z,96.15
2023-02-19T07:51:53.693Z,96.66
2023-02-19T07:54:56.928Z,96.81
2023-02-19T07:58:00.858Z,97.11
2023-02-19T08:01:18.424Z,97.81
2023-02-19T08:04:21.991Z,98.52
2023-02-19T08:07:24.860Z,99.68
2023-02-19T08:10:47.356Z,100.00
2023-02-19T08:13:51.633Z,100.00
2023-02-19T08:16:55.623Z,100.00
2023-02-19T08:19:58.682Z,100.00
2023-02-19T08:23:02.961Z,100.00
2023-02-19T08:26:06.755Z,100.00
2023-02-19T08:29:10.144Z,100.00
2023-02-19T08:32:43.976Z,100.00
2023-02-19T08:36:15.965Z,100.00
2023-02-19T08:39:21.041Z,100.00
2023-02-19T08:42:25.471Z,100.00
2023-02-19T08:45:28.411Z,100.00
2023-02-19T08:48:33.191Z,100.00
2023-02-19T08:51:36.160Z,100.00
2023-02-19T08:54:42.113Z,100.00
2023-02-19T08:57:45.860Z,100.00
2023-02-19T09:00:49.164Z,100.00
2023-02-19T09:03:53.306Z,100.00
2023-02-19T09:06:56.551Z,100.00
2023-02-19T09:10:00.793Z,100.00
2023-02-19T09:13:04.112Z,100.00
2023-02-19T09:16:07.267Z,100.00
2023-02-19T09:19:10.485Z,100.00
2023-02-19T09:22:13.156Z,100.00
2023-02-19T09:25:16.395Z,100.00
2023-02-19T09:28:19.423Z,100.00
2023-02-19T09:31:22.783Z,100.00
2023-02-19T09:34:27.175Z,100.00
2023-02-19T09:37:31.554Z,100.00
2023-02-19T09:40:37.929Z,100.00
2023-02-19T09:43:41.128Z,100.00
2023-02-19T09:46:49.842Z,100.00
2023-02-19T09:49:59.193Z,100.00
2023-02-19T09:53:05.177Z,100.00
2023-02-19T09:56:09.189Z,100.00
2023-02-19T09:59:20.020Z,100.00
2023-02-19T10:02:26.051Z,100.00
2023-02-19T10:05:30.140Z,99.43
2023-02-19T10:08:38.386Z,99.07
2023-02-19T10:11:42.432Z,97.12
2023-02-19T10:14:49.899Z,99.01
2023-02-19T10:17:53.351Z,97.67
2023-02-19T10:20:57.702Z,96.31
2023-02-19T10:24:03.417Z,97.66
2023-02-19T10:27:12.225Z,95.34
2023-02-19T10:30:24.321Z,94.98
2023-02-19T10:33:28.249Z,93.15
2023-02-19T10:36:33.999Z,92.13
2023-02-19T10:39:42.372Z,95.57
2023-02-19T10:42:52.956Z,92.96
2023-02-19T10:45:57.234Z,93.15
2023-02-19T10:49:05.008Z,91.44
2023-02-19T10:52:31.220Z,89.54
2023-02-19T10:55:38.023Z,87.15
2023-02-19T10:58:44.994Z,87.62
2023-02-19T11:01:56.952Z,85.99
2023-02-19T11:05:16.224Z,83.02
2023-02-19T11:08:23.937Z,85.19
2023-02-19T11:11:30.595Z,83.43
2023-02-19T11:14:35.259Z,83.90
2023-02-19T11:17:38.793Z,82.77
2023-02-19T11:21:00.496Z,80.43
2023-02-19T11:24:04.645Z,80.74
2023-02-19T11:27:18.716Z,79.68
2023-02-19T11:30:35.753Z,80.08
2023-02-19T11:34:04.728Z,79.19
2023-02-19T11:37:13.989Z,78.19
2023-02-19T11:40:18.079Z,78.59
2023-02-19T11:43:28.381Z,77.87
2023-02-19T11:46:47.859Z,78.03
2023-02-19T11:50:01.099Z,75.79
2023-02-19T11:53:05.916Z,76.77
2023-02-19T11:56:34.200Z,77.19
2023-02-19T11:59:56.315Z,77.40
2023-02-19T12:03:22.958Z,77.05
2023-02-19T12:06:35.002Z,75.12
2023-02-19T12:09:49.313Z,74.41
2023-02-19T12:13:17.481Z,72.87
2023-02-19T12:16:31.536Z,75.60
2023-02-19T12:19:45.276Z,83.67
2023-02-19T12:22:54.525Z,80.66
2023-02-19T12:26:31.264Z,81.27
2023-02-19T12:29:41.755Z,80.97
2023-02-19T12:33:07.408Z,77.73
2023-02-19T12:36:20.372Z,75.60
2023-02-19T12:39:40.613Z,74.83
2023-02-19T12:42:57.112Z,67.63
2023-02-19T12:46:07.870Z,62.88
2023-02-19T12:49:32.526Z,64.68
2023-02-19T12:52:42.393Z,63.97
2023-02-19T12:55:46.890Z,66.95
2023-02-19T12:58:54.704Z,70.33
2023-02-19T13:02:11.720Z,72.00
2023-02-19T13:05:39.076Z,73.10
2023-02-19T13:09:06.307Z,73.04
2023-02-19T13:12:19.191Z,74.09
2023-02-19T13:15:35.355Z,78.30
2023-02-19T13:18:49.026Z,79.54
2023-02-19T13:22:41.489Z,79.29
2023-02-19T13:26:11.865Z,80.14
2023-02-19T13:29:18.487Z,73.95
2023-02-19T13:33:00.109Z,71.50
2023-02-19T13:36:09.891Z,64.09
2023-02-19T13:39:17.909Z,67.20
2023-02-19T13:42:34.949Z,67.78
2023-02-19T13:45:42.749Z,68.43
2023-02-19T13:48:46.525Z,70.18
2023-02-19T13:51:58.437Z,64.79
2023-02-19T13:55:41.532Z,60.81
2023-02-19T13:59:01.777Z,63.18
2023-02-19T14:02:05.885Z,65.75
2023-02-19T14:05:11.903Z,67.53
2023-02-19T14:08:48.296Z,69.08
2023-02-19T14:12:10.890Z,66.59
2023-02-19T14:15:45.494Z,71.62
2023-02-19T14:18:50.967Z,73.59
2023-02-19T14:21:55.122Z,74.16
2023-02-19T14:24:59.847Z,75.70
2023-02-19T14:28:05.972Z,75.39
2023-02-19T14:31:18.293Z,73.52
2023-02-19T14:34:28.470Z,69.06
2023-02-19T14:37:33.409Z,67.97
2023-02-19T14:40:39.805Z,68.19
2023-02-19T14:43:45.433Z,69.56
2023-02-19T14:47:04.129Z,71.99
2023-02-19T14:50:16.470Z,73.72
2023-02-19T14:53:21.533Z,74.83
2023-02-19T14:56:33.324Z,75.61
2023-02-19T14:59:37.934Z,77.31
2023-02-19T15:02:43.843Z,78.74
2023-02-19T15:05:49.776Z,79.20
2023-02-19T15:09:00.436Z,80.36
2023-02-19T15:12:05.322Z,80.26
2023-02-19T15:15:21.276Z,80.61
2023-02-19T15:18:27.357Z,81.70
2023-02-19T15:21:40.001Z,81.14
2023-02-19T15:24:48.684Z,81.89
2023-02-19T15:27:53.674Z,81.91
2023-02-19T15:30:59.108Z,82.35
2023-02-19T15:34:04.120Z,82.45
2023-02-19T15:37:11.391Z,81.96
2023-02-19T15:40:17.148Z,82.29
2023-02-19T15:43:32.514Z,82.99
2023-02-19T15:46:37.524Z,82.47
2023-02-19T15:49:57.878Z,83.03
2023-02-19T15:53:13.337Z,82.96
2023-02-19T15:56:28.765Z,83.83
2023-02-19T15:59:41.236Z,84.40
2023-02-19T16:02:53.064Z,83.99
2023-02-19T16:06:15.636Z,84.77
2023-02-19T16:09:35.571Z,85.14
2023-02-19T16:12:41.847Z,88.62
2023-02-19T16:15:46.884Z,92.51
2023-02-19T16:18:52.530Z,92.79
2023-02-19T16:21:56.938Z,93.66
2023-02-19T16:25:04.103Z,95.07
2023-02-19T16:28:19.616Z,93.71
2023-02-19T16:31:30.135Z,94.43
2023-02-19T16:34:51.806Z,93.43
2023-02-19T16:38:00.672Z,93.09
2023-02-19T16:41:13.605Z,93.69
2023-02-19T16:44:36.431Z,93.57
2023-02-19T16:47:45.439Z,93.25
2023-02-19T16:50:50.394Z,91.91
2023-02-19T16:53:54.527Z,91.12
2023-02-19T16:57:01.049Z,90.27
2023-02-19T17:00:05.585Z,90.80
2023-02-19T17:03:13.510Z,91.35
2023-02-19T17:06:17.719Z,91.68
2023-02-19T17:09:23.396Z,90.21
2023-02-19T17:12:28.005Z,89.34
2023-02-19T17:15:32.871Z,88.48
2023-02-19T17:18:37.856Z,88.82
2023-02-19T17:21:42.992Z,88.11
2023-02-19T17:24:48.453Z,88.50
2023-02-19T17:27:52.699Z,89.31
2023-02-19T17:30:56.915Z,89.88
2023-02-19T17:34:01.038Z,90.92
2023-02-19T17:37:06.571Z,90.90
2023-02-19T17:40:32.860Z,91.09
2023-02-19T17:43:38.478Z,92.50
2023-02-19T17:46:59.626Z,92.74
2023-02-19T17:50:07.653Z,93.35
2023-02-19T17:53:12.670Z,93.44
2023-02-19T17:56:21.879Z,93.51
2023-02-19T17:59:27.784Z,93.92
2023-02-19T18:02:32.939Z,94.53
2023-02-19T18:05:37.812Z,95.05
2023-02-19T18:09:05.217Z,95.94
2023-02-19T18:12:11.463Z,96.17
2023-02-19T18:15:22.671Z,96.33
2023-02-19T18:18:38.558Z,96.22
2023-02-19T18:21:49.947Z,95.87
2023-02-19T18:25:11.966Z,96.60
2023-02-19T18:28:16.063Z,96.10
2023-02-19T18:34:40.282Z,96.53
2023-02-19T18:37:54.799Z,97.03
2023-02-19T18:41:08.904Z,96.74
2023-02-19T18:44:27.133Z,97.12
2023-02-19T18:47:40.130Z,96.48
2023-02-19T18:50:56.599Z,97.32
2023-02-19T18:54:18.013Z,96.91
2023-02-19T18:57:38.162Z,97.40
2023-02-19T19:00:44.893Z,98.21
2023-02-19T19:03:49.139Z,98.60
2023-02-19T19:06:56.449Z,99.20
2023-02-19T19:10:08.202Z,99.46
2023-02-19T19:13:16.434Z,99.62
2023-02-19T19:16:42.782Z,99.44
2023-02-19T19:19:49.549Z,99.76
2023-02-19T19:22:54.667Z,99.60
2023-02-19T19:26:00.083Z,99.30
2023-02-19T19:29:09.552Z,99.31
2023-02-19T19:32:18.292Z,97.00
2023-02-19T19:35:32.070Z,94.90
2023-02-19T19:38:38.390Z,94.73
2023-02-19T19:41:53.039Z,94.61
2023-02-19T19:44:59.404Z,94.13
2023-02-19T19:48:05.845Z,92.86
2023-02-19T19:51:10.923Z,91.94
2023-02-19T19:54:16.833Z,91.47
2023-02-19T19:57:23.162Z,91.76
2023-02-19T20:00:29.589Z,91.83
2023-02-19T20:03:35.263Z,91.33
2023-02-19T20:06:41.387Z,92.50
2023-02-19T20:09:50.248Z,90.85
2023-02-19T20:12:54.474Z,89.93
2023-02-19T20:16:04.804Z,87.33
2023-02-19T20:19:09.709Z,85.24
2023-02-19T20:22:16.844Z,83.95
2023-02-19T20:25:22.200Z,83.68
2023-02-19T20:28:26.549Z,84.35
2023-02-19T20:31:32.847Z,85.08
2023-02-19T20:34:38.452Z,85.09
2023-02-19T20:37:50.914Z,85.86
2023-02-19T20:40:56.673Z,85.88
2023-02-19T20:44:04.716Z,86.36
2023-02-19T20:47:12.092Z,86.25
2023-02-19T20:50:19.364Z,85.59
2023-02-19T20:53:24.248Z,85.99
2023-02-19T20:56:30.171Z,86.40
2023-02-19T20:59:43.522Z,86.21
2023-02-19T21:02:47.580Z,85.97
2023-02-19T21:05:54.379Z,83.76
2023-02-19T21:08:58.846Z,80.32
2023-02-19T21:12:03.523Z,79.02
2023-02-19T21:15:09.015Z,78.70
2023-02-19T21:18:13.239Z,79.13
2023-02-19T21:21:20.684Z,80.32
2023-02-19T21:24:27.057Z,81.56
2023-02-19T21:27:30.974Z,82.95
2023-02-19T21:30:35.163Z,82.58
2023-02-19T21:33:38.829Z,80.17
2023-02-19T21:36:44.142Z,77.83
2023-02-19T21:39:47.924Z,78.00
2023-02-19T21:42:52.556Z,77.54
2023-02-19T21:45:57.800Z,76.62
2023-02-19T21:49:01.684Z,77.02
2023-02-19T21:52:04.968Z,76.05
2023-02-19T21:55:10.499Z,74.92
2023-02-19T21:58:15.988Z,74.48
2023-02-19T22:01:24.324Z,74.70
2023-02-19T22:04:27.983Z,73.90
2023-02-19T22:07:31.061Z,74.00
2023-02-19T22:10:34.694Z,74.03
2023-02-19T22:13:37.739Z,74.54
2023-02-19T22:16:41.275Z,75.88
2023-02-19T22:19:44.270Z,76.59
2023-02-19T22:22:47.676Z,76.37
2023-02-19T22:25:50.678Z,75.95
2023-02-19T22:28:54.758Z,75.50
2023-02-19T22:31:57.993Z,75.21
2023-02-19T22:35:01.619Z,74.69
2023-02-19T22:38:04.695Z,74.87
2023-02-19T22:41:08.004Z,74.62
2023-02-19T22:44:11.577Z,75.00
2023-02-19T22:47:15.340Z,75.06
2023-02-19T22:50:22.484Z,74.58
2023-02-19T22:53:26.681Z,73.81
2023-02-19T22:56:29.722Z,73.73
2023-02-19T22:59:33.696Z,73.71
2023-02-19T23:02:36.701Z,73.27
2023-02-19T23:05:40.132Z,72.85
2023-02-19T23:08:43.974Z,73.04
2023-02-19T23:11:47.916Z,72.87
2023-02-19T23:14:50.916Z,73.67
2023-02-19T23:17:54.316Z,73.49
2023-02-19T23:20:57.447Z,73.52
2023-02-19T23:24:00.886Z,74.23
2023-02-19T23:27:03.879Z,74.37
2023-02-19T23:30:07.675Z,74.53
2023-02-19T23:33:10.736Z,75.18
2023-02-19T23:36:15.086Z,75.39
2023-02-19T23:39:20.475Z,75.17
2023-02-19T23:42:23.761Z,75.66
2023-02-19T23:45:27.014Z,75.85
2023-02-19T23:48:30.460Z,75.93
2023-02-19T23:51:33.456Z,76.16
2023-02-19T23:54:36.703Z,76.77
2023-02-19T23:57:40.084Z,76.62
